Time;durP1;ratioP1;P1;durP2;ratioP2;P2;SDS_P1;SDS_P2;PMS_P1;PMS_P2;Temp;Humidity;BMP_temperature;BMP_pressure;BME280_temperature;BME280_humidity;BME280_pressure;Samples;Min_cycle;Max_cycle;Signal;HPM_P1;HPM_P2
2022/04/12 00:00:59;;;;;;;7.32;3.60;;;4.70;81.40;;;;;;5030207;28;20084;-71
2022/04/12 00:03:25;;;;;;;9.15;3.80;;;4.60;81.30;;;;;;5026168;28;20036;-71
2022/04/12 00:05:51;;;;;;;6.47;3.47;;;4.60;81.40;;;;;;5025632;28;20481;-71
2022/04/12 00:08:17;;;;;;;8.90;3.80;;;4.60;81.50;;;;;;5031112;28;20026;-71
2022/04/12 00:10:42;;;;;;;7.18;3.92;;;4.50;81.70;;;;;;5025772;28;20091;-71
2022/04/12 00:13:08;;;;;;;11.32;3.60;;;4.60;81.70;;;;;;5022277;28;20430;-72
2022/04/12 00:15:34;;;;;;;8.15;3.30;;;4.60;81.60;;;;;;5030136;28;20029;-71
2022/04/12 00:20:44;;;;;;;6.68;3.38;;;4.60;81.40;;;;;;5024421;28;20099;-71
2022/04/12 00:23:12;;;;;;;8.23;3.50;;;4.60;81.60;;;;;;5021707;28;20033;-71
2022/04/12 00:25:37;;;;;;;5.97;3.75;;;4.60;81.10;;;;;;5030300;28;20492;-71
2022/04/12 00:28:04;;;;;;;8.93;3.97;;;4.60;81.10;;;;;;5024594;28;20032;-71
2022/04/12 00:30:29;;;;;;;6.47;3.65;;;4.60;81.50;;;;;;5027993;28;20045;-71
2022/04/12 00:32:55;;;;;;;6.70;3.67;;;4.60;81.30;;;;;;5030200;28;20119;-71
2022/04/12 00:35:22;;;;;;;8.75;3.40;;;4.60;81.50;;;;;;5030229;28;20048;-71
2022/04/12 00:37:52;;;;;;;8.10;3.83;;;4.60;81.30;;;;;;5022245;28;20025;-71
2022/04/12 00:40:19;;;;;;;7.78;3.72;;;4.60;81.30;;;;;;5028838;28;20100;-71
2022/04/12 00:42:45;;;;;;;8.05;3.47;;;4.60;81.20;;;;;;5030051;28;20497;-71
2022/04/12 00:45:12;;;;;;;6.72;3.67;;;4.60;81.30;;;;;;5028228;28;20121;-71
2022/04/12 00:47:39;;;;;;;8.40;3.50;;;4.50;81.30;;;;;;5030224;28;20030;-71
2022/04/12 00:50:06;;;;;;;8.50;3.42;;;4.50;81.40;;;;;;5027451;28;20026;-71
2022/04/12 00:52:36;;;;;;;5.88;3.33;;;4.40;81.50;;;;;;5029818;28;20507;-71
2022/04/12 00:55:05;;;;;;;6.70;3.33;;;4.40;81.70;;;;;;5020853;28;20325;-71
2022/04/12 00:57:32;;;;;;;6.72;3.30;;;4.40;81.90;;;;;;5028198;28;20469;-71
2022/04/12 00:59:59;;;;;;;8.23;3.58;;;4.30;81.90;;;;;;5030296;28;20057;-70
2022/04/12 01:02:25;;;;;;;7.13;3.20;;;4.30;82.00;;;;;;5023238;28;20022;-73
2022/04/12 01:04:51;;;;;;;9.10;3.80;;;4.40;81.90;;;;;;5029193;28;20038;-70
2022/04/12 01:07:17;;;;;;;6.75;3.30;;;4.30;81.80;;;;;;5030146;28;20546;-71
2022/04/12 01:09:43;;;;;;;5.45;3.78;;;4.40;81.80;;;;;;5029652;28;20088;-71
2022/04/12 01:12:10;;;;;;;8.45;3.10;;;4.40;81.50;;;;;;5032626;28;20033;-70
2022/04/12 01:14:36;;;;;;;8.05;3.47;;;4.30;81.60;;;;;;5023978;28;20036;-71
2022/04/12 01:17:06;;;;;;;4.65;3.25;;;4.30;81.70;;;;;;5033390;28;20049;-71
2022/04/12 01:19:32;;;;;;;8.32;3.58;;;4.30;81.80;;;;;;5028002;28;20469;-72
2022/04/12 01:22:06;;;;;;;8.88;3.60;;;4.30;81.90;;;;;;5033343;28;20409;-70
2022/04/12 01:24:33;;;;;;;7.95;3.60;;;4.30;82.00;;;;;;5033253;28;20140;-70
2022/04/12 01:26:58;;;;;;;6.75;3.70;;;4.20;82.00;;;;;;5032133;28;20033;-70
2022/04/12 01:29:25;;;;;;;8.10;3.22;;;4.30;82.10;;;;;;5021705;28;20037;-71
2022/04/12 01:31:50;;;;;;;9.45;3.60;;;4.10;82.20;;;;;;5032774;28;20029;-71
2022/04/12 01:34:16;;;;;;;6.47;3.78;;;4.20;82.30;;;;;;5032855;28;20030;-71
2022/04/12 01:36:41;;;;;;;10.88;4.15;;;4.10;82.40;;;;;;5031639;28;20041;-73
2022/04/12 01:39:07;;;;;;;10.65;4.70;;;4.10;82.30;;;;;;5033165;28;20035;-71
2022/04/12 01:41:32;;;;;;;9.45;4.18;;;4.10;82.50;;;;;;5033069;28;20033;-71
2022/04/12 01:43:58;;;;;;;6.13;3.38;;;4.10;82.50;;;;;;5033197;28;20054;-71
2022/04/12 01:46:24;;;;;;;6.30;3.75;;;4.10;82.40;;;;;;5027380;28;20036;-71
2022/04/12 01:48:49;;;;;;;12.05;4.10;;;4.10;82.50;;;;;;5031402;28;20037;-70
2022/04/12 01:51:16;;;;;;;8.27;4.30;;;4.10;82.50;;;;;;5031954;28;20030;-70
2022/04/12 01:53:42;;;;;;;7.75;3.85;;;4.00;82.50;;;;;;5025383;28;20459;-71
2022/04/12 01:56:07;;;;;;;8.00;3.83;;;4.00;82.70;;;;;;5032856;28;20033;-70
2022/04/12 01:58:34;;;;;;;8.35;3.78;;;4.00;82.80;;;;;;5032555;28;20048;-70
2022/04/12 02:01:00;;;;;;;12.07;4.32;;;4.00;82.80;;;;;;5031945;28;20304;-70
2022/04/12 02:03:25;;;;;;;8.68;3.80;;;3.90;82.90;;;;;;5028801;28;20040;-70
2022/04/12 02:05:51;;;;;;;6.72;3.75;;;3.90;83.10;;;;;;5032205;28;20045;-71
2022/04/12 02:08:17;;;;;;;8.52;3.35;;;3.90;83.10;;;;;;5031475;28;20032;-70
2022/04/12 02:10:43;;;;;;;8.23;3.70;;;3.80;83.10;;;;;;5021189;28;20025;-70
2022/04/12 02:13:09;;;;;;;6.25;3.88;;;3.80;83.20;;;;;;5032315;28;20080;-70
2022/04/12 02:15:34;;;;;;;6.03;3.55;;;3.80;83.30;;;;;;5031073;28;20361;-71
2022/04/12 02:18:00;;;;;;;10.23;3.65;;;3.80;83.30;;;;;;5032293;28;20461;-70
2022/04/12 02:20:25;;;;;;;7.75;3.90;;;3.70;83.30;;;;;;5020001;28;20036;-71
2022/04/12 02:22:51;;;;;;;7.93;3.80;;;3.70;83.30;;;;;;5030941;28;20060;-71
2022/04/12 02:25:17;;;;;;;7.65;3.55;;;3.70;83.60;;;;;;5032079;28;20528;-71
2022/04/12 02:27:42;;;;;;;9.13;3.95;;;3.60;83.40;;;;;;5026791;28;20034;-70
2022/04/12 02:30:08;;;;;;;8.40;3.90;;;3.60;83.60;;;;;;5030255;28;20087;-70
2022/04/12 02:32:34;;;;;;;9.85;3.97;;;3.50;83.70;;;;;;5030902;28;20030;-70
2022/04/12 02:35:00;;;;;;;8.80;3.85;;;3.50;83.70;;;;;;5031737;28;20076;-70
2022/04/12 02:37:26;;;;;;;6.80;3.83;;;3.60;83.60;;;;;;5024988;28;20384;-71
2022/04/12 02:39:52;;;;;;;12.02;3.85;;;3.60;83.60;;;;;;5030895;28;20056;-71
2022/04/12 02:42:18;;;;;;;6.38;3.60;;;3.60;83.50;;;;;;5031784;28;20061;-70
2022/04/12 02:44:43;;;;;;;7.68;3.45;;;3.60;83.40;;;;;;5019619;28;20401;-70
2022/04/12 02:47:09;;;;;;;6.45;3.65;;;3.50;83.20;;;;;;5031504;28;20045;-71
2022/04/12 02:49:34;;;;;;;8.98;4.20;;;3.60;83.50;;;;;;5030070;28;20064;-71
2022/04/12 02:52:00;;;;;;;9.77;3.95;;;3.50;83.30;;;;;;5032273;28;20113;-70
2022/04/12 02:54:25;;;;;;;9.63;3.88;;;3.50;83.40;;;;;;5019131;28;20030;-70
2022/04/12 02:56:51;;;;;;;6.30;3.58;;;3.40;83.60;;;;;;5031693;28;20036;-70
2022/04/12 02:59:17;;;;;;;8.57;3.85;;;3.50;83.60;;;;;;5031419;28;20029;-70
2022/04/12 03:01:43;;;;;;;8.35;4.50;;;3.50;83.50;;;;;;5029986;28;20029;-71
2022/04/12 03:04:08;;;;;;;7.07;3.38;;;3.40;83.60;;;;;;5029578;28;20044;-70
2022/04/12 03:06:34;;;;;;;6.90;3.83;;;3.40;83.60;;;;;;5018225;28;20467;-71
2022/04/12 03:08:59;;;;;;;8.38;4.18;;;3.40;83.60;;;;;;5017967;28;20052;-71
2022/04/12 03:11:25;;;;;;;5.38;3.53;;;3.40;83.60;;;;;;5026578;28;20030;-70
2022/04/12 03:13:50;;;;;;;7.53;3.42;;;3.30;83.60;;;;;;5030737;28;20044;-70
2022/04/12 03:16:16;;;;;;;7.05;3.90;;;3.40;83.80;;;;;;5031032;28;20055;-70
2022/04/12 03:18:42;;;;;;;10.27;3.90;;;3.40;83.50;;;;;;5014750;28;20034;-71
2022/04/12 03:21:07;;;;;;;9.30;4.05;;;3.30;83.60;;;;;;5028915;28;20038;-71
2022/04/12 03:23:33;;;;;;;9.13;3.70;;;3.30;83.90;;;;;;5030403;28;20037;-70
2022/04/12 03:25:58;;;;;;;6.95;3.45;;;3.30;83.90;;;;;;5031247;28;20029;-70
2022/04/12 03:28:24;;;;;;;8.23;3.47;;;3.30;83.80;;;;;;5019679;28;20045;-71
2022/04/12 03:30:49;;;;;;;8.38;3.83;;;3.30;83.80;;;;;;5030165;28;20427;-71
2022/04/12 03:33:15;;;;;;;12.73;5.88;;;3.30;83.80;;;;;;5030775;28;20599;-71
2022/04/12 03:35:40;;;;;;;7.38;4.00;;;3.30;84.00;;;;;;5026717;28;20029;-71
2022/04/12 03:38:06;;;;;;;7.45;4.07;;;3.30;83.90;;;;;;5030914;28;20104;-71
2022/04/12 03:40:32;;;;;;;8.90;4.20;;;3.40;83.60;;;;;;5030874;28;20040;-72
2022/04/12 03:43:02;;;;;;;9.73;4.25;;;3.40;83.50;;;;;;5029348;28;20061;-71
2022/04/12 03:45:29;;;;;;;7.72;3.50;;;3.40;83.30;;;;;;5024671;28;20045;-71
2022/04/12 03:47:54;;;;;;;10.65;3.67;;;3.50;83.10;;;;;;5028223;28;20060;-71
2022/04/12 03:50:20;;;;;;;8.60;4.13;;;3.50;82.90;;;;;;5019632;28;20022;-71
2022/04/12 03:52:46;;;;;;;10.38;3.72;;;3.50;82.80;;;;;;5022652;28;20436;-71
2022/04/12 03:55:12;;;;;;;9.23;3.70;;;3.50;82.80;;;;;;5030069;28;20071;-72
2022/04/12 03:57:38;;;;;;;5.15;3.45;;;3.50;82.60;;;;;;5030427;28;20383;-71
2022/04/12 04:00:08;;;;;;;8.77;3.85;;;3.40;82.60;;;;;;5030583;28;20053;-71
2022/04/12 04:02:34;;;;;;;10.38;3.83;;;3.40;82.70;;;;;;5020552;28;20041;-72
2022/04/12 04:04:59;;;;;;;11.10;4.20;;;3.50;82.80;;;;;;5030379;28;20072;-71
2022/04/12 04:07:25;;;;;;;10.90;4.00;;;3.40;82.80;;;;;;5030703;28;20060;-71
2022/04/12 04:09:51;;;;;;;9.45;3.97;;;3.40;82.70;;;;;;5027972;28;20022;-71
2022/04/12 04:12:16;;;;;;;8.10;3.88;;;3.40;82.60;;;;;;5030117;28;20037;-71
2022/04/12 04:14:42;;;;;;;8.07;3.75;;;3.40;82.60;;;;;;5030102;28;20029;-71
2022/04/12 04:17:08;;;;;;;7.90;3.67;;;3.40;82.80;;;;;;5030368;28;20026;-71
2022/04/12 04:19:34;;;;;;;8.85;3.65;;;3.40;82.70;;;;;;5024698;28;20076;-68
2022/04/12 04:21:59;;;;;;;9.88;4.05;;;3.50;82.70;;;;;;5021543;28;20053;-67
2022/04/12 04:24:25;;;;;;;7.05;3.90;;;3.50;82.60;;;;;;5030288;28;20396;-69
2022/04/12 04:26:55;;;;;;;8.82;3.13;;;3.50;82.40;;;;;;5020913;28;20461;-68
2022/04/12 04:29:23;;;;;;;6.27;3.63;;;3.60;82.40;;;;;;5030462;28;20112;-68
2022/04/12 04:31:52;;;;;;;9.10;3.75;;;3.60;82.20;;;;;;5030343;28;20032;-68
2022/04/12 04:34:17;;;;;;;8.32;3.70;;;3.60;82.00;;;;;;5030316;28;20029;-68
2022/04/12 04:36:43;;;;;;;6.35;3.40;;;3.60;82.10;;;;;;5028191;28;20136;-68
2022/04/12 04:39:08;;;;;;;7.80;3.42;;;3.60;82.00;;;;;;5030888;28;20036;-68
2022/04/12 04:41:34;;;;;;;9.27;3.50;;;3.60;81.90;;;;;;5030332;28;20087;-68
2022/04/12 04:44:00;;;;;;;8.63;3.40;;;3.60;81.90;;;;;;5031870;28;20076;-68
2022/04/12 04:46:26;;;;;;;8.05;3.72;;;3.70;81.70;;;;;;5034030;28;20022;-69
2022/04/12 04:48:51;;;;;;;8.38;3.45;;;3.60;81.90;;;;;;5029668;28;20036;-68
2022/04/12 04:51:17;;;;;;;6.57;3.65;;;3.70;81.70;;;;;;5033864;28;20041;-68
2022/04/12 04:53:45;;;;;;;7.93;3.40;;;3.70;81.50;;;;;;5033123;28;20042;-69
2022/04/12 04:56:10;;;;;;;7.72;3.10;;;3.70;81.40;;;;;;5033779;28;20029;-68
2022/04/12 04:58:36;;;;;;;7.35;3.22;;;3.70;81.40;;;;;;5034073;28;20036;-69
2022/04/12 05:01:01;;;;;;;6.63;3.78;;;3.80;81.50;;;;;;5028376;28;20103;-71
2022/04/12 05:03:27;;;;;;;6.60;3.55;;;3.90;80.80;;;;;;5032074;28;20049;-68
2022/04/12 05:05:53;;;;;;;6.68;3.30;;;3.90;80.90;;;;;;5033913;28;20040;-68
2022/04/12 05:08:18;;;;;;;6.45;2.80;;;3.90;80.90;;;;;;5034150;28;20036;-68
2022/04/12 05:10:46;;;;;;;7.65;3.50;;;4.00;80.90;;;;;;5025411;28;20048;-68
2022/04/12 05:13:12;;;;;;;6.90;3.53;;;4.10;80.60;;;;;;5033698;28;20025;-69
2022/04/12 05:15:37;;;;;;;6.75;3.40;;;4.10;80.40;;;;;;5033245;28;20033;-69
2022/04/12 05:18:04;;;;;;;7.57;3.50;;;4.10;80.30;;;;;;5031367;28;20432;-68
2022/04/12 05:20:29;;;;;;;8.30;3.55;;;4.10;80.30;;;;;;5033619;28;20537;-68
2022/04/12 05:22:55;;;;;;;7.22;3.42;;;4.20;79.90;;;;;;5033302;28;20033;-69
2022/04/12 05:25:21;;;;;;;9.43;2.95;;;4.20;79.70;;;;;;5033287;28;20041;-68
2022/04/12 05:27:47;;;;;;;9.75;3.42;;;4.20;79.40;;;;;;5021645;28;20362;-68
2022/04/12 05:30:13;;;;;;;5.72;3.22;;;4.20;79.30;;;;;;5033004;28;20052;-68
2022/04/12 05:32:39;;;;;;;6.45;3.03;;;4.30;79.30;;;;;;5033355;28;20056;-68
2022/04/12 05:35:06;;;;;;;6.10;3.40;;;4.30;79.30;;;;;;5027877;28;20037;-68
2022/04/12 05:37:32;;;;;;;5.57;3.15;;;4.30;79.00;;;;;;5033131;28;20032;-69
2022/04/12 05:39:57;;;;;;;8.40;3.28;;;4.40;79.10;;;;;;5033193;28;20029;-68
2022/04/12 05:42:24;;;;;;;7.13;3.22;;;4.40;78.70;;;;;;5033006;28;20399;-68
2022/04/12 05:44:49;;;;;;;6.22;2.60;;;4.60;78.10;;;;;;5026589;28;20037;-68
2022/04/12 05:47:15;;;;;;;6.13;2.95;;;4.70;77.50;;;;;;5028342;28;20033;-69
2022/04/12 05:49:40;;;;;;;7.97;3.45;;;4.80;77.50;;;;;;5024810;28;20026;-67
2022/04/12 05:52:08;;;;;;;5.80;3.10;;;4.90;76.60;;;;;;5032217;28;20663;-68
2022/04/12 05:54:33;;;;;;;7.07;3.22;;;5.10;76.00;;;;;;5030650;28;20132;-70
2022/04/12 05:56:59;;;;;;;7.38;3.05;;;5.20;75.60;;;;;;5032388;28;20108;-68
2022/04/12 05:59:24;;;;;;;7.50;3.08;;;5.30;74.50;;;;;;5032649;28;20029;-68
2022/04/12 06:01:50;;;;;;;5.75;3.00;;;5.50;74.80;;;;;;5022181;28;20044;-68
2022/04/12 06:04:16;;;;;;;4.65;2.58;;;5.60;74.40;;;;;;5032293;28;20034;-68
2022/04/12 06:06:42;;;;;;;7.25;3.17;;;5.60;73.90;;;;;;5032716;28;20479;-71
2022/04/12 06:09:08;;;;;;;6.75;2.65;;;5.60;73.10;;;;;;5029426;28;20125;-68
2022/04/12 06:11:34;;;;;;;7.80;3.00;;;5.60;72.50;;;;;;5032626;28;20053;-71
2022/04/12 06:14:00;;;;;;;5.72;2.88;;;5.70;72.50;;;;;;5032793;28;20041;-68
2022/04/12 06:16:25;;;;;;;6.32;3.50;;;5.70;72.20;;;;;;5032202;28;20040;-68
2022/04/12 06:18:51;;;;;;;6.07;2.60;;;5.80;72.50;;;;;;5027017;28;20108;-69
2022/04/12 06:21:16;;;;;;;5.60;2.85;;;5.90;71.50;;;;;;5031418;28;20053;-68
2022/04/12 06:23:43;;;;;;;6.15;3.10;;;6.00;72.00;;;;;;5031397;28;20376;-69
2022/04/12 06:26:09;;;;;;;6.63;2.80;;;6.10;71.60;;;;;;5026577;28;20025;-69
2022/04/12 06:28:34;;;;;;;7.35;2.70;;;6.20;71.70;;;;;;5032308;28;20039;-69
2022/04/12 06:31:00;;;;;;;6.72;2.80;;;6.30;70.90;;;;;;5032125;28;20076;-69
2022/04/12 06:33:26;;;;;;;5.32;2.78;;;6.30;69.80;;;;;;5032586;28;20065;-69
2022/04/12 06:35:52;;;;;;;5.95;2.42;;;6.50;70.00;;;;;;5028369;28;20060;-70
2022/04/12 06:38:18;;;;;;;7.75;3.00;;;6.50;68.20;;;;;;5032137;28;20567;-69
2022/04/12 06:40:44;;;;;;;11.57;3.10;;;6.60;68.00;;;;;;5032175;28;20026;-69
2022/04/12 06:43:11;;;;;;;5.45;2.90;;;6.70;68.80;;;;;;5022467;28;20427;-69
2022/04/12 06:45:37;;;;;;;6.38;2.70;;;6.80;68.00;;;;;;5031583;28;20120;-69
2022/04/12 06:48:02;;;;;;;5.47;2.67;;;6.90;68.00;;;;;;5018540;28;20108;-69
2022/04/12 06:50:28;;;;;;;4.32;2.50;;;6.90;67.40;;;;;;5031236;28;20109;-70
2022/04/12 06:52:55;;;;;;;6.53;2.60;;;7.00;67.20;;;;;;5028980;28;20037;-69
2022/04/12 06:55:21;;;;;;;4.50;2.50;;;7.10;67.70;;;;;;5030534;28;20508;-69
2022/04/12 06:57:47;;;;;;;4.93;2.63;;;7.10;67.00;;;;;;5031796;28;20028;-70
2022/04/12 07:00:13;;;;;;;6.25;2.67;;;7.20;66.90;;;;;;5023805;28;20042;-70
2022/04/12 07:02:39;;;;;;;6.30;2.92;;;7.30;66.90;;;;;;5029982;28;20565;-70
2022/04/12 07:05:06;;;;;;;5.47;2.58;;;7.50;67.00;;;;;;5028546;28;20072;-70
2022/04/12 07:07:32;;;;;;;6.38;2.60;;;7.50;65.40;;;;;;5031376;28;20029;-71
2022/04/12 07:09:58;;;;;;;4.53;2.45;;;7.60;65.80;;;;;;5022050;28;20033;-69
2022/04/12 07:12:24;;;;;;;4.65;2.53;;;7.80;65.20;;;;;;5031456;28;20492;-70
2022/04/12 07:14:51;;;;;;;5.78;2.22;;;7.80;64.50;;;;;;5031318;28;20438;-69
2022/04/12 07:17:16;;;;;;;5.32;2.63;;;7.90;64.10;;;;;;5023184;28;20057;-69
2022/04/12 07:19:43;;;;;;;5.50;2.08;;;8.00;64.30;;;;;;5030290;28;20072;-71
2022/04/12 07:22:09;;;;;;;5.70;2.50;;;8.10;63.80;;;;;;5030573;28;20128;-69
2022/04/12 07:24:35;;;;;;;4.30;2.28;;;8.10;63.60;;;;;;5031475;28;20087;-69
2022/04/12 07:27:01;;;;;;;5.28;2.47;;;8.30;63.80;;;;;;5019338;28;20112;-69
2022/04/12 07:29:26;;;;;;;4.90;2.10;;;8.40;63.50;;;;;;5031205;28;20131;-73
2022/04/12 07:31:52;;;;;;;4.47;2.40;;;8.40;62.50;;;;;;5031003;28;20480;-71
2022/04/12 07:34:17;;;;;;;7.82;2.67;;;8.50;63.20;;;;;;5023036;28;20116;-70
2022/04/12 07:36:47;;;;;;;7.05;2.70;;;8.60;62.30;;;;;;5021802;28;20450;-69
2022/04/12 07:39:14;;;;;;;5.00;2.58;;;8.80;62.20;;;;;;5031207;28;20068;-69
2022/04/12 07:41:40;;;;;;;6.20;2.55;;;8.70;61.50;;;;;;5030778;28;20037;-69
2022/04/12 07:44:05;;;;;;;4.55;2.20;;;8.90;62.10;;;;;;5029259;28;20195;-69
2022/04/12 07:46:31;;;;;;;5.78;2.40;;;9.00;61.60;;;;;;5030784;28;20033;-69
2022/04/12 07:48:57;;;;;;;5.38;2.38;;;9.00;61.40;;;;;;5029030;28;20465;-70
2022/04/12 07:51:22;;;;;;;4.22;2.10;;;9.10;61.70;;;;;;5022071;28;20030;-70
2022/04/12 07:53:48;;;;;;;4.57;2.40;;;9.10;61.00;;;;;;5030495;28;20033;-67
2022/04/12 07:56:13;;;;;;;5.32;2.30;;;9.10;60.80;;;;;;5030883;28;20034;-73
2022/04/12 07:58:39;;;;;;;5.78;2.42;;;9.00;60.00;;;;;;5031232;28;20045;-67
2022/04/12 08:01:04;;;;;;;5.80;2.20;;;9.10;60.40;;;;;;5018388;28;20100;-67
2022/04/12 08:03:30;;;;;;;4.20;2.05;;;9.40;60.40;;;;;;5030159;28;20116;-68
2022/04/12 08:05:56;;;;;;;3.60;2.08;;;9.60;59.30;;;;;;5030207;28;20365;-68
2022/04/12 08:08:21;;;;;;;4.40;2.00;;;9.80;59.20;;;;;;5026755;28;20030;-68
2022/04/12 08:10:47;;;;;;;4.78;2.20;;;10.10;56.90;;;;;;5030765;28;20026;-69
2022/04/12 08:13:12;;;;;;;3.88;2.17;;;10.40;57.80;;;;;;5030828;28;20041;-70
2022/04/12 08:15:38;;;;;;;4.63;2.03;;;10.70;56.30;;;;;;5030388;28;20030;-69
2022/04/12 08:18:05;;;;;;;2.97;1.83;;;10.60;55.30;;;;;;5032599;28;20037;-70
2022/04/12 08:20:30;;;;;;;5.22;2.35;;;10.70;55.80;;;;;;5034215;28;20029;-69
2022/04/12 08:22:56;;;;;;;7.72;2.20;;;11.00;54.20;;;;;;5028225;28;20033;-69
2022/04/12 08:25:22;;;;;;;6.22;2.28;;;11.00;52.70;;;;;;5024712;28;20080;-71
2022/04/12 08:27:48;;;;;;;4.03;2.10;;;11.60;54.40;;;;;;5034531;28;20037;-69
2022/04/12 08:30:14;;;;;;;4.38;2.45;;;11.80;51.70;;;;;;5034201;28;20039;-69
2022/04/12 08:32:40;;;;;;;4.78;2.22;;;11.90;50.90;;;;;;5034354;28;20034;-69
2022/04/12 08:35:07;;;;;;;4.13;2.30;;;12.00;49.70;;;;;;5026112;28;20044;-69
2022/04/12 08:37:32;;;;;;;3.90;2.15;;;12.10;50.50;;;;;;5034251;28;20083;-69
2022/04/12 08:39:58;;;;;;;5.47;2.08;;;12.40;49.20;;;;;;5034667;28;20025;-69
2022/04/12 08:42:23;;;;;;;3.65;2.15;;;12.60;50.10;;;;;;5028615;28;20038;-69
2022/04/12 08:44:50;;;;;;;5.15;2.08;;;12.60;48.60;;;;;;5034006;28;20080;-70
2022/04/12 08:47:18;;;;;;;3.67;2.15;;;13.00;48.90;;;;;;5030565;28;20029;-69
2022/04/12 08:49:44;;;;;;;6.20;2.50;;;12.90;46.60;;;;;;5033919;28;20026;-69
2022/04/12 08:52:13;;;;;;;5.25;2.55;;;13.10;48.60;;;;;;5031437;28;20107;-69
2022/04/12 08:54:40;;;;;;;7.13;3.03;;;13.50;46.90;;;;;;5034119;28;20045;-69
2022/04/12 08:57:06;;;;;;;5.72;2.60;;;13.50;44.60;;;;;;5034825;28;20032;-69
2022/04/12 08:59:32;;;;;;;4.90;2.35;;;13.50;45.20;;;;;;5027729;28;20034;-72
2022/04/12 09:01:58;;;;;;;4.63;2.47;;;13.70;46.30;;;;;;5033377;28;20104;-69
2022/04/12 09:04:27;;;;;;;7.28;2.60;;;13.80;45.70;;;;;;5032055;28;20422;-69
2022/04/12 09:06:57;;;;;;;4.60;2.55;;;14.10;44.70;;;;;;5033221;28;20036;-70
2022/04/12 09:09:29;;;;;;;6.38;2.40;;;14.30;43.10;;;;;;5025929;28;20450;-72
2022/04/12 09:12:06;;;;;;;5.85;2.70;;;14.10;44.10;;;;;;5033786;28;20380;-69
2022/04/12 09:14:52;;;;;;;4.55;2.30;;;14.00;44.60;;;;;;5032509;28;20029;-71
2022/04/12 09:17:34;;;;;;;4.82;2.47;;;14.00;44.60;;;;;;5029054;28;20018;-69
2022/04/12 09:19:59;;;;;;;6.35;2.70;;;14.10;43.00;;;;;;5032040;28;20037;-69
2022/04/12 09:22:26;;;;;;;5.15;2.60;;;14.40;43.10;;;;;;5033013;28;20032;-69
2022/04/12 09:25:01;;;;;;;7.78;2.60;;;14.40;43.70;;;;;;5030311;28;20041;-70
2022/04/12 09:27:29;;;;;;;6.55;2.45;;;14.70;43.10;;;;;;5033622;28;20021;-70
2022/04/12 09:29:55;;;;;;;6.32;2.47;;;14.60;43.40;;;;;;5032498;28;20072;-69
2022/04/12 09:32:23;;;;;;;6.97;3.13;;;14.70;42.50;;;;;;5032560;28;20116;-70
2022/04/12 09:34:49;;;;;;;5.22;2.63;;;14.90;42.80;;;;;;5032722;28;20029;-69
2022/04/12 09:37:20;;;;;;;5.45;2.88;;;14.60;43.20;;;;;;5032661;28;20029;-69
2022/04/12 09:39:47;;;;;;;5.80;2.58;;;14.80;43.20;;;;;;5033222;28;20041;-69
2022/04/12 09:42:13;;;;;;;7.55;2.47;;;15.10;43.40;;;;;;5029680;28;20327;-69
2022/04/12 09:44:39;;;;;;;4.97;2.33;;;15.00;41.90;;;;;;5032739;28;20041;-69
2022/04/12 09:47:04;;;;;;;5.18;2.13;;;15.00;41.60;;;;;;5031563;28;20030;-70
2022/04/12 09:49:49;;;;;;;4.47;2.45;;;15.00;42.90;;;;;;5023070;28;20124;-70
2022/04/12 09:52:15;;;;;;;5.38;2.38;;;14.90;41.90;;;;;;5031337;28;20121;-70
2022/04/12 09:54:40;;;;;;;4.00;2.38;;;15.10;42.40;;;;;;5033036;28;20061;-69
2022/04/12 09:57:07;;;;;;;4.30;2.28;;;15.20;41.70;;;;;;5031720;28;20541;-69
2022/04/12 09:59:34;;;;;;;5.88;2.45;;;15.00;42.10;;;;;;5019900;28;20030;-69
2022/04/12 10:02:00;;;;;;;4.93;2.38;;;15.40;42.70;;;;;;5032711;28;20057;-69
2022/04/12 10:04:28;;;;;;;5.50;2.50;;;15.20;42.50;;;;;;5031509;28;20072;-69
2022/04/12 10:06:56;;;;;;;3.17;2.00;;;15.00;42.30;;;;;;5027869;28;20026;-69
2022/04/12 10:09:21;;;;;;;4.65;2.13;;;15.30;42.10;;;;;;5032848;28;20036;-70
2022/04/12 10:11:48;;;;;;;4.10;2.25;;;15.10;41.50;;;;;;5033093;28;20108;-69
2022/04/12 10:14:15;;;;;;;5.47;2.40;;;15.20;42.70;;;;;;5032730;28;20025;-69
2022/04/12 10:16:42;;;;;;;6.93;2.50;;;15.30;42.90;;;;;;5024644;28;20059;-70
2022/04/12 10:19:07;;;;;;;3.92;1.85;;;15.50;42.20;;;;;;5032124;28;20029;-70
2022/04/12 10:21:34;;;;;;;2.95;1.63;;;15.80;42.30;;;;;;5029228;28;20510;-70
2022/04/12 10:24:02;;;;;;;3.60;1.67;;;16.10;41.60;;;;;;5028171;28;20022;-69
2022/04/12 10:26:29;;;;;;;5.00;2.28;;;16.40;42.30;;;;;;5032396;28;20040;-69
2022/04/12 10:29:00;;;;;;;5.63;2.50;;;15.90;41.00;;;;;;5032494;28;20377;-69
2022/04/12 10:31:31;;;;;;;3.25;1.88;;;15.80;40.50;;;;;;5023141;28;20030;-72
2022/04/12 10:34:09;;;;;;;5.15;2.13;;;15.80;40.20;;;;;;5028594;28;20544;-69
2022/04/12 10:37:14;;;;;;;5.57;2.30;;;15.60;41.10;;;;;;5030641;28;20049;-70
2022/04/12 10:39:46;;;;;;;3.35;2.05;;;15.60;41.80;;;;;;4990073;28;20048;-70
2022/04/12 10:42:18;;;;;;;4.97;2.15;;;15.50;41.20;;;;;;4990099;28;20035;-70
2022/04/12 10:44:57;;;;;;;7.25;2.47;;;15.00;41.50;;;;;;5005962;28;20049;-69
2022/04/12 10:47:31;;;;;;;5.03;2.40;;;15.50;42.50;;;;;;5032187;28;20372;-70
2022/04/12 10:50:03;;;;;;;4.60;2.20;;;16.20;41.90;;;;;;5028041;28;20025;-70
2022/04/12 10:52:46;;;;;;;6.28;2.20;;;16.20;41.10;;;;;;5031248;28;20452;-70
2022/04/12 10:55:17;;;;;;;4.07;2.00;;;16.40;39.60;;;;;;5020125;28;20052;-70
2022/04/12 10:57:42;;;;;;;;;;;16.40;40.50;;;;;;5029281;28;20048;-70
2022/04/12 11:00:19;;;;;;;5.32;2.55;;;16.30;40.20;;;;;;5032218;28;19905;-70
2022/04/12 11:02:55;;;;;;;4.97;2.58;;;16.60;39.10;;;;;;5029922;28;20030;-70
2022/04/12 11:05:39;;;;;;;4.68;2.40;;;16.90;41.10;;;;;;5031332;28;20036;-70
2022/04/12 11:08:14;;;;;;;5.65;2.78;;;17.40;40.00;;;;;;5020438;28;20068;-70
2022/04/12 11:10:41;;;;;;;5.25;2.50;;;17.10;38.90;;;;;;5031802;28;20484;-70
2022/04/12 11:13:10;;;;;;;4.68;2.42;;;17.30;39.80;;;;;;5031400;28;20038;-70
2022/04/12 11:15:37;;;;;;;4.75;2.15;;;17.20;38.80;;;;;;5027633;28;20108;-70
2022/04/12 11:18:11;;;;;;;6.75;2.83;;;17.60;39.50;;;;;;5027584;28;20013;-68
2022/04/12 11:20:39;;;;;;;5.43;2.45;;;17.80;38.20;;;;;;5026175;28;20025;-68
2022/04/12 11:23:13;;;;;;;5.95;2.58;;;17.10;37.80;;;;;;5029816;28;20522;-68
2022/04/12 11:25:46;;;;;;;5.97;2.30;;;17.20;39.20;;;;;;5030221;28;20036;-68
2022/04/12 11:28:17;;;;;;;4.85;2.65;;;17.40;38.20;;;;;;5031471;28;20037;-69
2022/04/12 11:30:53;;;;;;;5.40;2.65;;;17.50;40.20;;;;;;5027650;28;20029;-68
2022/04/12 11:33:19;;;;;;;5.93;2.55;;;17.50;39.70;;;;;;5025519;28;20116;-68
2022/04/12 11:35:44;;;;;;;5.97;2.80;;;17.70;38.60;;;;;;5029872;28;20750;-68
2022/04/12 11:38:10;;;;;;;5.75;2.67;;;17.80;38.00;;;;;;5030785;28;20029;-68
2022/04/12 11:40:42;;;;;;;6.13;2.85;;;18.10;38.10;;;;;;5025247;28;20034;-68
2022/04/12 11:43:25;;;;;;;5.75;2.55;;;18.00;36.90;;;;;;5006343;28;20046;-68
2022/04/12 11:45:52;;;;;;;5.53;2.85;;;18.00;37.20;;;;;;5030874;28;20120;-68
2022/04/12 11:48:18;;;;;;;5.55;2.70;;;18.20;36.90;;;;;;5027065;28;20393;-68
2022/04/12 11:50:51;;;;;;;6.68;2.88;;;18.00;35.90;;;;;;5022136;28;20033;-68
2022/04/12 11:53:17;;;;;;;6.47;2.75;;;18.30;36.60;;;;;;5031122;28;20036;-68
2022/04/12 11:55:45;;;;;;;5.82;2.55;;;18.50;36.40;;;;;;5030829;28;20033;-68
2022/04/12 11:58:11;;;;;;;7.38;2.55;;;18.80;38.20;;;;;;5020556;28;20036;-68
2022/04/12 12:00:36;;;;;;;4.95;2.80;;;18.50;35.60;;;;;;5029011;28;20034;-68
2022/04/12 12:03:02;;;;;;;6.68;2.85;;;18.90;36.50;;;;;;5028758;28;20145;-68
2022/04/12 12:05:30;;;;;;;4.53;2.50;;;19.20;35.10;;;;;;5026188;28;20034;-71
2022/04/12 12:08:00;;;;;;;9.30;2.83;;;19.50;35.00;;;;;;5030908;28;20160;-69
2022/04/12 12:10:29;;;;;;;6.68;3.00;;;19.50;35.80;;;;;;5030764;28;20388;-69
2022/04/12 12:12:55;;;;;;;6.80;2.58;;;19.50;35.30;;;;;;5030763;28;20365;-69
2022/04/12 12:15:22;;;;;;;5.97;2.70;;;19.50;35.90;;;;;;5028850;28;20032;-70
2022/04/12 12:17:49;;;;;;;5.55;2.60;;;19.30;35.30;;;;;;5028908;28;20044;-69
2022/04/12 12:20:17;;;;;;;4.82;2.40;;;19.50;35.00;;;;;;5026964;28;20061;-69
2022/04/12 12:22:44;;;;;;;6.55;2.83;;;19.20;34.30;;;;;;5029372;28;20382;-70
2022/04/12 12:25:18;;;;;;;6.07;3.05;;;19.40;36.30;;;;;;5030574;28;20048;-70
2022/04/12 12:27:57;;;;;;;5.88;2.70;;;19.40;34.40;;;;;;5030574;28;20104;-69
2022/04/12 12:30:25;;;;;;;5.38;2.95;;;19.80;35.20;;;;;;5028614;28;20030;-69
2022/04/12 12:32:52;;;;;;;8.45;2.60;;;19.50;34.70;;;;;;5018815;28;20036;-69
2022/04/12 12:35:18;;;;;;;6.80;2.70;;;19.80;34.90;;;;;;5030148;28;20065;-69
2022/04/12 12:37:46;;;;;;;5.85;2.67;;;20.10;33.60;;;;;;5030129;28;20239;-69
2022/04/12 12:40:20;;;;;;;9.57;2.60;;;19.90;33.30;;;;;;5027339;28;20060;-70
2022/04/12 12:42:47;;;;;;;3.97;2.42;;;19.90;34.00;;;;;;5029978;28;20092;-69
2022/04/12 12:45:15;;;;;;;4.43;2.55;;;19.70;34.00;;;;;;5030085;28;20037;-70
2022/04/12 12:47:42;;;;;;;4.95;2.47;;;20.00;33.80;;;;;;5030125;28;20544;-70
2022/04/12 12:50:12;;;;;;;5.68;3.13;;;20.50;33.00;;;;;;5023692;28;20109;-69
2022/04/12 12:52:39;;;;;;;5.38;2.75;;;20.50;32.50;;;;;;5030417;28;20385;-69
2022/04/12 12:55:13;;;;;;;5.07;2.28;;;20.00;32.70;;;;;;5029221;28;20111;-70